sensor_id;sensor_type;location;lat;lon;timestamp;temperature;humidity
3758;DHT22;1894;51.038;13.692;2023-02-12T00:01:23;6.80;99.90
3758;DHT22;1894;51.038;13.692;2023-02-12T00:03:51;6.80;99.90
3758;DHT22;1894;51.038;13.692;2023-02-12T00:06:18;6.80;99.90
3758;DHT22;1894;51.038;13.692;2023-02-12T00:08:49;6.70;99.90
3758;DHT22;1894;51.038;13.692;2023-02-12T00:11:19;6.70;99.90
3758;DHT22;1894;51.038;13.692;2023-02-12T00:13:48;6.70;99.90
3758;DHT22;1894;51.038;13.692;2023-02-12T00:16:19;6.80;99.90
3758;DHT22;1894;51.038;13.692;2023-02-12T00:18:51;6.90;99.90
3758;DHT22;1894;51.038;13.692;2023-02-12T00:21:20;6.90;99.90
3758;DHT22;1894;51.038;13.692;2023-02-12T00:23:48;6.90;99.90
3758;DHT22;1894;51.038;13.692;2023-02-12T00:26:17;6.80;99.90
3758;DHT22;1894;51.038;13.692;2023-02-12T00:28:48;6.80;99.90
3758;DHT22;1894;51.038;13.692;2023-02-12T00:31:19;6.90;99.90
3758;DHT22;1894;51.038;13.692;2023-02-12T00:33:48;6.90;99.90
3758;DHT22;1894;51.038;13.692;2023-02-12T00:36:19;6.90;99.90
3758;DHT22;1894;51.038;13.692;2023-02-12T00:38:51;6.80;99.90
3758;DHT22;1894;51.038;13.692;2023-02-12T00:41:19;6.80;99.90
3758;DHT22;1894;51.038;13.692;2023-02-12T00:43:48;6.70;99.90
3758;DHT22;1894;51.038;13.692;2023-02-12T00:46:15;6.80;99.90
3758;DHT22;1894;51.038;13.692;2023-02-12T00:48:43;6.90;99.90
3758;DHT22;1894;51.038;13.692;2023-02-12T00:51:10;6.80;99.90
3758;DHT22;1894;51.038;13.692;2023-02-12T00:53:38;6.70;99.90
3758;DHT22;1894;51.038;13.692;2023-02-12T00:56:06;6.70;99.90
3758;DHT22;1894;51.038;13.692;2023-02-12T00:58:33;6.80;99.90
3758;DHT22;1894;51.038;13.692;2023-02-12T01:01:01;6.80;99.90
3758;DHT22;1894;51.038;13.692;2023-02-12T01:03:28;6.80;99.90
3758;DHT22;1894;51.038;13.692;2023-02-12T01:05:57;6.80;99.90
3758;DHT22;1894;51.038;13.692;2023-02-12T01:08:24;6.70;99.90
3758;DHT22;1894;51.038;13.692;2023-02-12T01:11:03;6.70;99.90
3758;DHT22;1894;51.038;13.692;2023-02-12T01:13:32;6.60;99.90
3758;DHT22;1894;51.038;13.692;2023-02-12T01:18:28;6.60;99.90
3758;DHT22;1894;51.038;13.692;2023-02-12T01:20:55;6.50;99.90
3758;DHT22;1894;51.038;13.692;2023-02-12T01:23:24;6.50;99.90
3758;DHT22;1894;51.038;13.692;2023-02-12T01:25:51;6.50;99.90
3758;DHT22;1894;51.038;13.692;2023-02-12T01:28:19;6.40;99.90
3758;DHT22;1894;51.038;13.692;2023-02-12T01:30:47;6.40;99.90
3758;DHT22;1894;51.038;13.692;2023-02-12T01:33:14;6.50;99.90
3758;DHT22;1894;51.038;13.692;2023-02-12T01:35:41;6.50;99.90
3758;DHT22;1894;51.038;13.692;2023-02-12T01:38:08;6.50;99.90
3758;DHT22;1894;51.038;13.692;2023-02-12T01:40:36;6.50;99.90
3758;DHT22;1894;51.038;13.692;2023-02-12T01:43:08;6.50;99.90
3758;DHT22;1894;51.038;13.692;2023-02-12T01:48:16;6.40;99.90
3758;DHT22;1894;51.038;13.692;2023-02-12T01:50:47;6.40;99.90
3758;DHT22;1894;51.038;13.692;2023-02-12T01:53:18;6.50;99.90
3758;DHT22;1894;51.038;13.692;2023-02-12T01:55:50;6.40;99.90
3758;DHT22;1894;51.038;13.692;2023-02-12T01:58:21;6.40;99.90
3758;DHT22;1894;51.038;13.692;2023-02-12T02:00:49;6.40;99.90
3758;DHT22;1894;51.038;13.692;2023-02-12T02:03:16;6.50;99.90
3758;DHT22;1894;51.038;13.692;2023-02-12T02:08:21;6.50;99.90
3758;DHT22;1894;51.038;13.692;2023-02-12T02:10:49;6.50;99.90
3758;DHT22;1894;51.038;13.692;2023-02-12T02:13:17;6.40;99.90
3758;DHT22;1894;51.038;13.692;2023-02-12T02:16:24;6.50;99.90
3758;DHT22;1894;51.038;13.692;2023-02-12T02:18:56;6.60;99.90
3758;DHT22;1894;51.038;13.692;2023-02-12T02:30:22;6.50;99.90
3758;DHT22;1894;51.038;13.692;2023-02-12T02:33:01;6.50;99.90
3758;DHT22;1894;51.038;13.692;2023-02-12T02:38:52;6.50;99.90
3758;DHT22;1894;51.038;13.692;2023-02-12T02:44:34;6.50;99.90
3758;DHT22;1894;51.038;13.692;2023-02-12T02:47:13;6.50;99.90
3758;DHT22;1894;51.038;13.692;2023-02-12T02:49:56;6.50;99.90
3758;DHT22;1894;51.038;13.692;2023-02-12T02:52:35;6.60;99.90
3758;DHT22;1894;51.038;13.692;2023-02-12T02:55:21;6.50;99.90
3758;DHT22;1894;51.038;13.692;2023-02-12T02:58:05;6.60;99.90
3758;DHT22;1894;51.038;13.692;2023-02-12T03:00:44;6.50;99.90
3758;DHT22;1894;51.038;13.692;2023-02-12T03:03:22;6.50;99.90
3758;DHT22;1894;51.038;13.692;2023-02-12T03:06:00;6.50;99.90
3758;DHT22;1894;51.038;13.692;2023-02-12T03:08:33;6.50;99.90
3758;DHT22;1894;51.038;13.692;2023-02-12T03:11:12;6.60;99.90
3758;DHT22;1894;51.038;13.692;2023-02-12T03:13:47;6.60;99.90
3758;DHT22;1894;51.038;13.692;2023-02-12T03:16:20;6.60;99.90
3758;DHT22;1894;51.038;13.692;2023-02-12T03:19:13;6.60;99.90
3758;DHT22;1894;51.038;13.692;2023-02-12T03:22:03;6.60;99.90
3758;DHT22;1894;51.038;13.692;2023-02-12T03:24:35;6.50;99.90
3758;DHT22;1894;51.038;13.692;2023-02-12T03:27:09;6.50;99.90
3758;DHT22;1894;51.038;13.692;2023-02-12T03:29:40;6.50;99.90
3758;DHT22;1894;51.038;13.692;2023-02-12T03:34:54;6.50;99.90
3758;DHT22;1894;51.038;13.692;2023-02-12T03:41:16;6.50;99.90
3758;DHT22;1894;51.038;13.692;2023-02-12T03:44:14;6.50;99.90
3758;DHT22;1894;51.038;13.692;2023-02-12T03:52:36;6.50;99.90
3758;DHT22;1894;51.038;13.692;2023-02-12T03:55:04;6.60;99.90
3758;DHT22;1894;51.038;13.692;2023-02-12T03:57:36;6.60;99.90
3758;DHT22;1894;51.038;13.692;2023-02-12T04:00:15;6.60;99.90
3758;DHT22;1894;51.038;13.692;2023-02-12T04:02:46;6.50;99.90
3758;DHT22;1894;51.038;13.692;2023-02-12T04:05:23;6.60;99.90
3758;DHT22;1894;51.038;13.692;2023-02-12T04:07:53;6.70;99.90
3758;DHT22;1894;51.038;13.692;2023-02-12T04:10:30;6.60;99.90
3758;DHT22;1894;51.038;13.692;2023-02-12T04:13:20;6.70;99.90
3758;DHT22;1894;51.038;13.692;2023-02-12T04:18:46;6.50;99.90
3758;DHT22;1894;51.038;13.692;2023-02-12T04:21:55;6.50;99.90
3758;DHT22;1894;51.038;13.692;2023-02-12T04:30:17;6.60;99.90
3758;DHT22;1894;51.038;13.692;2023-02-12T04:32:52;6.60;99.90
3758;DHT22;1894;51.038;13.692;2023-02-12T04:35:31;6.70;99.90
3758;DHT22;1894;51.038;13.692;2023-02-12T04:38:10;6.60;99.90
3758;DHT22;1894;51.038;13.692;2023-02-12T04:40:45;6.70;99.90
3758;DHT22;1894;51.038;13.692;2023-02-12T04:43:14;6.80;99.90
3758;DHT22;1894;51.038;13.692;2023-02-12T04:45:41;6.70;99.90
3758;DHT22;1894;51.038;13.692;2023-02-12T04:48:08;6.60;99.90
3758;DHT22;1894;51.038;13.692;2023-02-12T04:50:42;6.60;99.90
3758;DHT22;1894;51.038;13.692;2023-02-12T04:53:09;6.60;99.90
3758;DHT22;1894;51.038;13.692;2023-02-12T04:55:37;6.60;99.90
3758;DHT22;1894;51.038;13.692;2023-02-12T04:58:05;6.50;99.90
3758;DHT22;1894;51.038;13.692;2023-02-12T05:00:33;6.60;99.90
3758;DHT22;1894;51.038;13.692;2023-02-12T05:03:00;6.60;99.90
3758;DHT22;1894;51.038;13.692;2023-02-12T05:05:27;6.50;99.90
3758;DHT22;1894;51.038;13.692;2023-02-12T05:07:54;6.50;99.90
3758;DHT22;1894;51.038;13.692;2023-02-12T05:10:21;6.60;99.90
3758;DHT22;1894;51.038;13.692;2023-02-12T05:12:51;6.40;99.90
3758;DHT22;1894;51.038;13.692;2023-02-12T05:15:19;6.50;99.90
3758;DHT22;1894;51.038;13.692;2023-02-12T05:17:47;6.40;99.90
3758;DHT22;1894;51.038;13.692;2023-02-12T05:20:14;6.50;99.90
3758;DHT22;1894;51.038;13.692;2023-02-12T05:22:41;6.50;99.90
3758;DHT22;1894;51.038;13.692;2023-02-12T05:25:08;6.60;99.90
3758;DHT22;1894;51.038;13.692;2023-02-12T05:27:36;6.60;99.90
3758;DHT22;1894;51.038;13.692;2023-02-12T05:30:03;6.60;99.90
3758;DHT22;1894;51.038;13.692;2023-02-12T05:32:31;6.60;99.90
3758;DHT22;1894;51.038;13.692;2023-02-12T05:34:59;6.60;99.90
3758;DHT22;1894;51.038;13.692;2023-02-12T05:37:26;6.70;99.90
3758;DHT22;1894;51.038;13.692;2023-02-12T05:39:53;6.70;99.90
3758;DHT22;1894;51.038;13.692;2023-02-12T05:42:20;6.70;99.90
3758;DHT22;1894;51.038;13.692;2023-02-12T05:44:47;6.70;99.90
3758;DHT22;1894;51.038;13.692;2023-02-12T05:47:14;6.60;99.90
3758;DHT22;1894;51.038;13.692;2023-02-12T05:49:42;6.70;99.90
3758;DHT22;1894;51.038;13.692;2023-02-12T05:52:09;6.60;99.90
3758;DHT22;1894;51.038;13.692;2023-02-12T05:54:36;6.70;99.90
3758;DHT22;1894;51.038;13.692;2023-02-12T05:57:03;6.80;99.90
3758;DHT22;1894;51.038;13.692;2023-02-12T05:59:32;6.70;99.90
3758;DHT22;1894;51.038;13.692;2023-02-12T06:01:59;6.70;99.90
3758;DHT22;1894;51.038;13.692;2023-02-12T06:04:27;6.60;99.90
3758;DHT22;1894;51.038;13.692;2023-02-12T06:06:55;6.60;99.90
3758;DHT22;1894;51.038;13.692;2023-02-12T06:09:23;6.60;99.90
3758;DHT22;1894;51.038;13.692;2023-02-12T06:11:50;6.60;99.90
3758;DHT22;1894;51.038;13.692;2023-02-12T06:14:19;6.60;99.90
3758;DHT22;1894;51.038;13.692;2023-02-12T06:16:48;6.70;99.90
3758;DHT22;1894;51.038;13.692;2023-02-12T06:19:17;6.70;99.90
3758;DHT22;1894;51.038;13.692;2023-02-12T06:21:46;6.70;99.90
3758;DHT22;1894;51.038;13.692;2023-02-12T06:24:15;6.70;99.90
3758;DHT22;1894;51.038;13.692;2023-02-12T06:26:43;6.60;99.90
3758;DHT22;1894;51.038;13.692;2023-02-12T06:29:10;6.70;99.90
3758;DHT22;1894;51.038;13.692;2023-02-12T06:31:41;6.70;99.90
3758;DHT22;1894;51.038;13.692;2023-02-12T06:34:10;6.50;99.90
3758;DHT22;1894;51.038;13.692;2023-02-12T06:36:40;6.60;99.90
3758;DHT22;1894;51.038;13.692;2023-02-12T06:39:12;6.50;99.90
3758;DHT22;1894;51.038;13.692;2023-02-12T06:41:40;6.70;99.90
3758;DHT22;1894;51.038;13.692;2023-02-12T06:44:09;6.50;99.90
3758;DHT22;1894;51.038;13.692;2023-02-12T06:46:37;6.60;99.90
3758;DHT22;1894;51.038;13.692;2023-02-12T06:49:04;6.60;99.90
3758;DHT22;1894;51.038;13.692;2023-02-12T06:51:31;6.70;99.90
3758;DHT22;1894;51.038;13.692;2023-02-12T06:53:59;6.80;99.90
3758;DHT22;1894;51.038;13.692;2023-02-12T06:56:26;6.80;99.90
3758;DHT22;1894;51.038;13.692;2023-02-12T06:58:55;6.80;99.90
3758;DHT22;1894;51.038;13.692;2023-02-12T07:01:26;6.80;99.90
3758;DHT22;1894;51.038;13.692;2023-02-12T07:03:59;6.80;99.90
3758;DHT22;1894;51.038;13.692;2023-02-12T07:06:29;6.80;99.90
3758;DHT22;1894;51.038;13.692;2023-02-12T07:08:58;6.90;99.90
3758;DHT22;1894;51.038;13.692;2023-02-12T07:11:27;6.90;99.90
3758;DHT22;1894;51.038;13.692;2023-02-12T07:13:56;6.90;99.90
3758;DHT22;1894;51.038;13.692;2023-02-12T07:16:24;7.00;99.90
3758;DHT22;1894;51.038;13.692;2023-02-12T07:18:52;7.00;99.90
3758;DHT22;1894;51.038;13.692;2023-02-12T07:21:20;7.00;99.90
3758;DHT22;1894;51.038;13.692;2023-02-12T07:23:49;6.90;99.90
3758;DHT22;1894;51.038;13.692;2023-02-12T07:26:18;6.80;99.90
3758;DHT22;1894;51.038;13.692;2023-02-12T07:28:46;6.90;99.90
3758;DHT22;1894;51.038;13.692;2023-02-12T07:31:16;6.80;99.90
3758;DHT22;1894;51.038;13.692;2023-02-12T07:33:46;6.80;99.90
3758;DHT22;1894;51.038;13.692;2023-02-12T07:36:15;6.90;99.90
3758;DHT22;1894;51.038;13.692;2023-02-12T07:38:44;7.00;99.90
3758;DHT22;1894;51.038;13.692;2023-02-12T07:43:41;7.00;99.90
3758;DHT22;1894;51.038;13.692;2023-02-12T07:46:15;7.00;99.90
3758;DHT22;1894;51.038;13.692;2023-02-12T07:49:05;7.00;99.90
3758;DHT22;1894;51.038;13.692;2023-02-12T07:51:34;7.20;99.90
3758;DHT22;1894;51.038;13.692;2023-02-12T07:54:03;7.30;99.90
3758;DHT22;1894;51.038;13.692;2023-02-12T07:56:34;7.40;99.90
3758;DHT22;1894;51.038;13.692;2023-02-12T07:59:06;7.40;99.90
3758;DHT22;1894;51.038;13.692;2023-02-12T08:01:38;7.40;99.90
3758;DHT22;1894;51.038;13.692;2023-02-12T08:04:09;7.50;99.90
3758;DHT22;1894;51.038;13.692;2023-02-12T08:06:41;7.70;99.90
3758;DHT22;1894;51.038;13.692;2023-02-12T08:09:12;7.70;99.90
3758;DHT22;1894;51.038;13.692;2023-02-12T08:11:42;7.50;99.90
3758;DHT22;1894;51.038;13.692;2023-02-12T08:14:15;7.50;99.90
3758;DHT22;1894;51.038;13.692;2023-02-12T08:16:46;7.50;99.90
3758;DHT22;1894;51.038;13.692;2023-02-12T08:19:14;7.50;99.90
3758;DHT22;1894;51.038;13.692;2023-02-12T08:21:51;7.50;99.90
3758;DHT22;1894;51.038;13.692;2023-02-12T08:24:22;7.60;99.90
3758;DHT22;1894;51.038;13.692;2023-02-12T08:26:50;7.70;99.90
3758;DHT22;1894;51.038;13.692;2023-02-12T08:29:20;7.70;99.90
3758;DHT22;1894;51.038;13.692;2023-02-12T08:31:54;7.70;99.90
3758;DHT22;1894;51.038;13.692;2023-02-12T08:34:28;7.70;99.90
3758;DHT22;1894;51.038;13.692;2023-02-12T08:36:57;7.60;99.90
3758;DHT22;1894;51.038;13.692;2023-02-12T08:39:26;7.60;99.90
3758;DHT22;1894;51.038;13.692;2023-02-12T08:41:56;7.60;99.90
3758;DHT22;1894;51.038;13.692;2023-02-12T08:44:24;7.60;99.90
3758;DHT22;1894;51.038;13.692;2023-02-12T08:46:52;7.70;99.90
3758;DHT22;1894;51.038;13.692;2023-02-12T08:49:24;7.90;99.90
3758;DHT22;1894;51.038;13.692;2023-02-12T08:51:54;7.90;99.90
3758;DHT22;1894;51.038;13.692;2023-02-12T08:54:25;8.00;99.90
3758;DHT22;1894;51.038;13.692;2023-02-12T08:56:55;8.00;99.90
3758;DHT22;1894;51.038;13.692;2023-02-12T08:59:24;8.10;99.90
3758;DHT22;1894;51.038;13.692;2023-02-12T09:01:51;8.20;99.90
3758;DHT22;1894;51.038;13.692;2023-02-12T09:04:22;8.20;99.90
3758;DHT22;1894;51.038;13.692;2023-02-12T09:06:51;8.20;99.90
3758;DHT22;1894;51.038;13.692;2023-02-12T09:09:19;8.20;99.90
3758;DHT22;1894;51.038;13.692;2023-02-12T09:11:47;8.40;99.90
3758;DHT22;1894;51.038;13.692;2023-02-12T09:14:16;8.50;99.90
3758;DHT22;1894;51.038;13.692;2023-02-12T09:16:44;8.50;99.90
3758;DHT22;1894;51.038;13.692;2023-02-12T09:19:12;8.60;99.90
3758;DHT22;1894;51.038;13.692;2023-02-12T09:21:40;8.70;99.90
3758;DHT22;1894;51.038;13.692;2023-02-12T09:24:08;8.70;99.90
3758;DHT22;1894;51.038;13.692;2023-02-12T09:26:36;8.60;99.90
3758;DHT22;1894;51.038;13.692;2023-02-12T09:29:04;8.60;99.90
3758;DHT22;1894;51.038;13.692;2023-02-12T09:31:32;8.50;99.90
3758;DHT22;1894;51.038;13.692;2023-02-12T09:34:01;8.00;99.90
3758;DHT22;1894;51.038;13.692;2023-02-12T09:36:30;8.10;99.90
3758;DHT22;1894;51.038;13.692;2023-02-12T09:38:59;8.20;99.90
3758;DHT22;1894;51.038;13.692;2023-02-12T09:41:53;8.10;99.90
3758;DHT22;1894;51.038;13.692;2023-02-12T09:47:20;8.40;99.90
3758;DHT22;1894;51.038;13.692;2023-02-12T09:53:16;8.50;99.90
3758;DHT22;1894;51.038;13.692;2023-02-12T09:55:46;8.60;99.90
3758;DHT22;1894;51.038;13.692;2023-02-12T09:58:33;8.80;99.90
3758;DHT22;1894;51.038;13.692;2023-02-12T10:01:11;8.70;99.90
3758;DHT22;1894;51.038;13.692;2023-02-12T10:03:45;8.90;99.90
3758;DHT22;1894;51.038;13.692;2023-02-12T10:06:18;9.30;99.90
3758;DHT22;1894;51.038;13.692;2023-02-12T10:12:15;9.40;99.90
3758;DHT22;1894;51.038;13.692;2023-02-12T10:23:20;9.00;99.90
3758;DHT22;1894;51.038;13.692;2023-02-12T10:25:57;9.30;99.90
3758;DHT22;1894;51.038;13.692;2023-02-12T10:28:30;9.30;99.90
3758;DHT22;1894;51.038;13.692;2023-02-12T10:31:07;9.50;99.90
3758;DHT22;1894;51.038;13.692;2023-02-12T10:33:48;9.40;99.90
3758;DHT22;1894;51.038;13.692;2023-02-12T10:36:32;9.60;99.90
3758;DHT22;1894;51.038;13.692;2023-02-12T10:41:48;9.60;99.90
3758;DHT22;1894;51.038;13.692;2023-02-12T10:44:27;9.60;99.90
3758;DHT22;1894;51.038;13.692;2023-02-12T10:46:55;9.80;99.90
3758;DHT22;1894;51.038;13.692;2023-02-12T10:49:22;9.80;99.90
3758;DHT22;1894;51.038;13.692;2023-02-12T10:52:15;10.20;99.90
3758;DHT22;1894;51.038;13.692;2023-02-12T10:54:48;9.70;99.90
3758;DHT22;1894;51.038;13.692;2023-02-12T10:57:23;9.40;99.90
3758;DHT22;1894;51.038;13.692;2023-02-12T10:59:55;9.40;99.90
3758;DHT22;1894;51.038;13.692;2023-02-12T11:02:28;9.40;99.90
3758;DHT22;1894;51.038;13.692;2023-02-12T11:05:15;9.80;99.90
3758;DHT22;1894;51.038;13.692;2023-02-12T11:07:51;10.10;99.90
3758;DHT22;1894;51.038;13.692;2023-02-12T11:10:44;10.10;99.90
3758;DHT22;1894;51.038;13.692;2023-02-12T11:13:26;10.30;99.90
3758;DHT22;1894;51.038;13.692;2023-02-12T11:15:54;10.30;99.90
3758;DHT22;1894;51.038;13.692;2023-02-12T11:18:32;10.40;99.90
3758;DHT22;1894;51.038;13.692;2023-02-12T11:21:11;10.50;99.90
3758;DHT22;1894;51.038;13.692;2023-02-12T11:23:40;10.30;99.90
3758;DHT22;1894;51.038;13.692;2023-02-12T11:28:58;10.60;99.90
3758;DHT22;1894;51.038;13.692;2023-02-12T11:31:30;10.60;99.90
3758;DHT22;1894;51.038;13.692;2023-02-12T11:34:08;10.70;99.90
3758;DHT22;1894;51.038;13.692;2023-02-12T11:36:49;10.40;99.90
3758;DHT22;1894;51.038;13.692;2023-02-12T11:39:21;10.40;99.90
3758;DHT22;1894;51.038;13.692;2023-02-12T11:41:53;10.60;99.90
3758;DHT22;1894;51.038;13.692;2023-02-12T11:44:31;10.60;99.90
3758;DHT22;1894;51.038;13.692;2023-02-12T11:47:06;10.20;99.90
3758;DHT22;1894;51.038;13.692;2023-02-12T11:49:52;10.20;99.90
3758;DHT22;1894;51.038;13.692;2023-02-12T11:52:27;10.30;99.90
3758;DHT22;1894;51.038;13.692;2023-02-12T11:55:04;10.10;99.90
3758;DHT22;1894;51.038;13.692;2023-02-12T11:57:47;9.80;99.90
3758;DHT22;1894;51.038;13.692;2023-02-12T12:00:20;9.70;99.90
3758;DHT22;1894;51.038;13.692;2023-02-12T12:05:57;9.60;99.90
3758;DHT22;1894;51.038;13.692;2023-02-12T12:08:32;9.60;99.90
3758;DHT22;1894;51.038;13.692;2023-02-12T12:11:20;9.70;99.90
3758;DHT22;1894;51.038;13.692;2023-02-12T12:14:29;9.60;99.90
3758;DHT22;1894;51.038;13.692;2023-02-12T12:17:11;9.70;99.90
3758;DHT22;1894;51.038;13.692;2023-02-12T12:20:05;9.50;99.90
3758;DHT22;1894;51.038;13.692;2023-02-12T12:31:09;9.40;99.90
3758;DHT22;1894;51.038;13.692;2023-02-12T12:46:15;9.50;99.90
3758;DHT22;1894;51.038;13.692;2023-02-12T13:09:31;9.40;99.90
3758;DHT22;1894;51.038;13.692;2023-02-12T13:18:14;9.30;99.90
3758;DHT22;1894;51.038;13.692;2023-02-12T13:23:45;9.10;99.90
3758;DHT22;1894;51.038;13.692;2023-02-12T13:29:12;8.80;99.90
3758;DHT22;1894;51.038;13.692;2023-02-12T13:32:06;8.70;99.90
3758;DHT22;1894;51.038;13.692;2023-02-12T13:34:39;8.80;99.90
3758;DHT22;1894;51.038;13.692;2023-02-12T13:37:14;9.00;99.90
3758;DHT22;1894;51.038;13.692;2023-02-12T13:39:47;8.60;99.90
3758;DHT22;1894;51.038;13.692;2023-02-12T13:42:31;8.60;99.90
3758;DHT22;1894;51.038;13.692;2023-02-12T13:48:39;8.40;99.90
3758;DHT22;1894;51.038;13.692;2023-02-12T14:02:45;8.60;99.90
3758;DHT22;1894;51.038;13.692;2023-02-12T14:05:04;8.80;99.90
3758;DHT22;1894;51.038;13.692;2023-02-12T14:07:50;8.90;99.90
3758;DHT22;1894;51.038;13.692;2023-02-12T14:10:25;9.00;99.90
3758;DHT22;1894;51.038;13.692;2023-02-12T14:12:58;8.90;99.90
3758;DHT22;1894;51.038;13.692;2023-02-12T14:15:51;8.80;99.90
3758;DHT22;1894;51.038;13.692;2023-02-12T14:18:31;8.90;99.90
3758;DHT22;1894;51.038;13.692;2023-02-12T14:23:40;8.80;99.90
3758;DHT22;1894;51.038;13.692;2023-02-12T14:26:18;8.90;99.90
3758;DHT22;1894;51.038;13.692;2023-02-12T14:28:48;8.90;99.90
3758;DHT22;1894;51.038;13.692;2023-02-12T14:33:51;8.70;99.90
3758;DHT22;1894;51.038;13.692;2023-02-12T14:39:02;9.00;99.90
3758;DHT22;1894;51.038;13.692;2023-02-12T14:41:52;9.00;99.90
3758;DHT22;1894;51.038;13.692;2023-02-12T14:50:14;9.00;99.90
3758;DHT22;1894;51.038;13.692;2023-02-12T14:52:51;9.10;99.90
3758;DHT22;1894;51.038;13.692;2023-02-12T14:55:30;9.00;99.90
3758;DHT22;1894;51.038;13.692;2023-02-12T14:58:04;9.10;99.90
3758;DHT22;1894;51.038;13.692;2023-02-12T15:00:40;9.00;99.90
3758;DHT22;1894;51.038;13.692;2023-02-12T15:11:26;9.00;99.90
3758;DHT22;1894;51.038;13.692;2023-02-12T15:17:16;8.90;99.90
3758;DHT22;1894;51.038;13.692;2023-02-12T15:20:02;9.00;99.90
3758;DHT22;1894;51.038;13.692;2023-02-12T15:22:41;8.80;99.90
3758;DHT22;1894;51.038;13.692;2023-02-12T15:27:52;8.50;99.90
3758;DHT22;1894;51.038;13.692;2023-02-12T15:30:53;8.50;99.90
3758;DHT22;1894;51.038;13.692;2023-02-12T15:33:27;8.40;99.90
3758;DHT22;1894;51.038;13.692;2023-02-12T15:35:56;8.30;99.90
3758;DHT22;1894;51.038;13.692;2023-02-12T15:38:36;8.40;99.90
3758;DHT22;1894;51.038;13.692;2023-02-12T15:41:13;8.40;99.90
3758;DHT22;1894;51.038;13.692;2023-02-12T15:43:51;8.50;99.90
3758;DHT22;1894;51.038;13.692;2023-02-12T15:46:18;8.50;99.90
3758;DHT22;1894;51.038;13.692;2023-02-12T15:48:46;8.50;99.90
3758;DHT22;1894;51.038;13.692;2023-02-12T15:51:33;8.20;99.90
3758;DHT22;1894;51.038;13.692;2023-02-12T15:54:05;8.30;99.90
3758;DHT22;1894;51.038;13.692;2023-02-12T15:56:33;8.30;99.90
3758;DHT22;1894;51.038;13.692;2023-02-12T15:59:02;8.40;99.90
3758;DHT22;1894;51.038;13.692;2023-02-12T16:01:32;8.50;99.90
3758;DHT22;1894;51.038;13.692;2023-02-12T16:04:05;8.50;99.90
3758;DHT22;1894;51.038;13.692;2023-02-12T16:06:35;8.50;99.90
3758;DHT22;1894;51.038;13.692;2023-02-12T16:09:16;8.50;99.90
3758;DHT22;1894;51.038;13.692;2023-02-12T16:11:55;8.50;99.90
3758;DHT22;1894;51.038;13.692;2023-02-12T16:14:39;8.50;99.90
3758;DHT22;1894;51.038;13.692;2023-02-12T16:17:30;8.40;99.90
3758;DHT22;1894;51.038;13.692;2023-02-12T16:20:17;8.20;99.90
3758;DHT22;1894;51.038;13.692;2023-02-12T16:22:49;8.20;99.90
3758;DHT22;1894;51.038;13.692;2023-02-12T16:25:29;8.30;99.90
3758;DHT22;1894;51.038;13.692;2023-02-12T16:28:00;8.30;99.90
3758;DHT22;1894;51.038;13.692;2023-02-12T16:30:37;8.40;99.90
3758;DHT22;1894;51.038;13.692;2023-02-12T16:36:03;8.30;99.90
3758;DHT22;1894;51.038;13.692;2023-02-12T16:38:51;8.10;99.90
3758;DHT22;1894;51.038;13.692;2023-02-12T16:46:32;8.20;99.90
3758;DHT22;1894;51.038;13.692;2023-02-12T16:49:01;8.20;99.90
3758;DHT22;1894;51.038;13.692;2023-02-12T16:51:34;8.20;99.90
3758;DHT22;1894;51.038;13.692;2023-02-12T16:54:04;8.20;99.90
3758;DHT22;1894;51.038;13.692;2023-02-12T16:56:52;8.10;99.90
3758;DHT22;1894;51.038;13.692;2023-02-12T16:59:19;8.10;99.90
3758;DHT22;1894;51.038;13.692;2023-02-12T17:01:59;8.10;99.90
3758;DHT22;1894;51.038;13.692;2023-02-12T17:04:32;8.00;99.90
3758;DHT22;1894;51.038;13.692;2023-02-12T17:06:59;7.70;99.90
3758;DHT22;1894;51.038;13.692;2023-02-12T17:09:26;7.80;99.90
3758;DHT22;1894;51.038;13.692;2023-02-12T17:11:56;7.80;99.90
3758;DHT22;1894;51.038;13.692;2023-02-12T17:14:23;7.80;99.90
3758;DHT22;1894;51.038;13.692;2023-02-12T17:16:51;7.90;99.90
3758;DHT22;1894;51.038;13.692;2023-02-12T17:19:18;7.80;99.90
3758;DHT22;1894;51.038;13.692;2023-02-12T17:21:46;7.90;99.90
3758;DHT22;1894;51.038;13.692;2023-02-12T17:24:24;7.90;99.90
3758;DHT22;1894;51.038;13.692;2023-02-12T17:26:53;7.90;99.90
3758;DHT22;1894;51.038;13.692;2023-02-12T17:29:23;7.90;99.90
3758;DHT22;1894;51.038;13.692;2023-02-12T17:31:51;8.00;99.90
3758;DHT22;1894;51.038;13.692;2023-02-12T17:34:20;7.90;99.90
3758;DHT22;1894;51.038;13.692;2023-02-12T17:36:48;7.90;99.90
3758;DHT22;1894;51.038;13.692;2023-02-12T17:39:16;7.90;99.90
3758;DHT22;1894;51.038;13.692;2023-02-12T17:41:46;7.80;99.90
3758;DHT22;1894;51.038;13.692;2023-02-12T17:44:14;7.70;99.90
3758;DHT22;1894;51.038;13.692;2023-02-12T17:46:42;7.80;99.90
3758;DHT22;1894;51.038;13.692;2023-02-12T17:49:09;7.80;99.90
3758;DHT22;1894;51.038;13.692;2023-02-12T17:51:37;7.80;99.90
3758;DHT22;1894;51.038;13.692;2023-02-12T17:54:04;7.80;99.90
3758;DHT22;1894;51.038;13.692;2023-02-12T17:56:31;7.70;99.90
3758;DHT22;1894;51.038;13.692;2023-02-12T17:59:00;7.80;99.90
3758;DHT22;1894;51.038;13.692;2023-02-12T18:01:27;7.80;99.90
3758;DHT22;1894;51.038;13.692;2023-02-12T18:03:57;7.80;99.90
3758;DHT22;1894;51.038;13.692;2023-02-12T18:06:27;7.70;99.90
3758;DHT22;1894;51.038;13.692;2023-02-12T18:08:55;7.70;99.90
3758;DHT22;1894;51.038;13.692;2023-02-12T18:11:23;7.80;99.90
3758;DHT22;1894;51.038;13.692;2023-02-12T18:13:52;7.90;99.90
3758;DHT22;1894;51.038;13.692;2023-02-12T18:16:23;8.00;99.90
3758;DHT22;1894;51.038;13.692;2023-02-12T18:18:52;8.00;99.90
3758;DHT22;1894;51.038;13.692;2023-02-12T18:21:20;8.00;99.90
3758;DHT22;1894;51.038;13.692;2023-02-12T18:23:52;8.00;99.90
3758;DHT22;1894;51.038;13.692;2023-02-12T18:26:20;8.00;99.90
3758;DHT22;1894;51.038;13.692;2023-02-12T18:28:48;7.90;99.90
3758;DHT22;1894;51.038;13.692;2023-02-12T18:31:26;7.90;99.90
3758;DHT22;1894;51.038;13.692;2023-02-12T18:33:56;7.80;99.90
3758;DHT22;1894;51.038;13.692;2023-02-12T18:36:23;7.70;99.90
3758;DHT22;1894;51.038;13.692;2023-02-12T18:38:51;7.60;99.90
3758;DHT22;1894;51.038;13.692;2023-02-12T18:41:24;7.70;99.90
3758;DHT22;1894;51.038;13.692;2023-02-12T18:43:52;7.50;99.90
3758;DHT22;1894;51.038;13.692;2023-02-12T18:46:26;7.50;99.90
3758;DHT22;1894;51.038;13.692;2023-02-12T18:48:54;7.50;99.90
3758;DHT22;1894;51.038;13.692;2023-02-12T18:51:26;7.50;99.90
3758;DHT22;1894;51.038;13.692;2023-02-12T18:53:55;7.60;99.90
3758;DHT22;1894;51.038;13.692;2023-02-12T18:56:28;7.60;99.90
3758;DHT22;1894;51.038;13.692;2023-02-12T18:58:58;7.60;99.90
3758;DHT22;1894;51.038;13.692;2023-02-12T19:01:27;7.50;99.90
3758;DHT22;1894;51.038;13.692;2023-02-12T19:03:57;7.50;99.90
3758;DHT22;1894;51.038;13.692;2023-02-12T19:06:30;7.60;99.90
3758;DHT22;1894;51.038;13.692;2023-02-12T19:09:02;7.60;99.90
3758;DHT22;1894;51.038;13.692;2023-02-12T19:11:30;7.60;99.90
3758;DHT22;1894;51.038;13.692;2023-02-12T19:13:57;7.50;99.90
3758;DHT22;1894;51.038;13.692;2023-02-12T19:16:26;7.60;99.90
3758;DHT22;1894;51.038;13.692;2023-02-12T19:18:55;7.70;99.90
3758;DHT22;1894;51.038;13.692;2023-02-12T19:21:24;7.70;99.90
3758;DHT22;1894;51.038;13.692;2023-02-12T19:23:57;7.70;99.90
3758;DHT22;1894;51.038;13.692;2023-02-12T19:26:27;7.70;99.90
3758;DHT22;1894;51.038;13.692;2023-02-12T19:28:56;7.70;99.90
3758;DHT22;1894;51.038;13.692;2023-02-12T19:31:31;7.80;99.90